createdAt,value
2017-05-03T00:01:24.496Z,23.00
2017-05-03T00:03:52.431Z,26.86
2017-05-03T00:06:20.364Z,27.92
2017-05-03T00:08:48.381Z,29.04
2017-05-03T00:11:16.321Z,26.16
2017-05-03T00:13:43.863Z,27.30
2017-05-03T00:16:11.820Z,25.28
2017-05-03T00:18:39.780Z,23.96
2017-05-03T00:21:07.715Z,28.32
2017-05-03T00:23:35.694Z,28.00
2017-05-03T00:26:03.627Z,29.16
2017-05-03T00:28:31.961Z,23.26
2017-05-03T00:30:59.923Z,38.04
2017-05-03T00:33:27.863Z,33.70
2017-05-03T00:35:55.853Z,27.70
2017-05-03T00:38:23.833Z,38.12
2017-05-03T00:40:51.766Z,35.74
2017-05-03T00:43:20.099Z,40.42
2017-05-03T00:45:47.679Z,44.06
2017-05-03T00:48:15.619Z,38.34
2017-05-03T00:50:43.549Z,45.14
2017-05-03T00:53:11.108Z,54.20
2017-05-03T00:55:39.435Z,40.92
2017-05-03T00:58:07.375Z,39.74
2017-05-03T01:00:35.316Z,49.42
2017-05-03T01:03:03.661Z,39.00
2017-05-03T01:05:31.588Z,41.36
2017-05-03T01:07:59.546Z,47.12
2017-05-03T01:10:27.227Z,36.06
2017-05-03T01:12:54.764Z,42.54
2017-05-03T01:15:23.072Z,41.76
2017-05-03T01:17:50.639Z,44.72
2017-05-03T01:20:18.571Z,37.90
2017-05-03T01:22:46.499Z,35.84
2017-05-03T01:25:14.467Z,46.26
2017-05-03T01:27:42.416Z,41.76
2017-05-03T01:30:10.339Z,38.14
2017-05-03T01:32:38.677Z,33.42
2017-05-03T01:35:06.610Z,41.86
2017-05-03T01:37:34.916Z,44.90
2017-05-03T01:40:02.888Z,51.12
2017-05-03T01:42:30.824Z,38.42
2017-05-03T01:44:58.370Z,32.92
2017-05-03T01:47:26.328Z,35.06
2017-05-03T01:49:54.270Z,35.02
2017-05-03T01:52:22.201Z,42.62
2017-05-03T01:54:49.767Z,50.16
2017-05-03T01:57:17.715Z,43.36
2017-05-03T01:59:46.011Z,36.84
2017-05-03T02:02:14.364Z,38.40
2017-05-03T02:04:42.283Z,39.64
2017-05-03T02:07:10.223Z,51.00
2017-05-03T02:09:37.785Z,44.82
2017-05-03T02:12:05.739Z,40.48
2017-05-03T02:14:34.052Z,38.54
2017-05-03T02:17:01.624Z,37.34
2017-05-03T02:19:29.556Z,40.22
2017-05-03T02:21:57.117Z,44.12
2017-05-03T02:24:25.456Z,37.42
2017-05-03T02:26:53.391Z,32.22
2017-05-03T02:29:20.934Z,38.94
2017-05-03T02:31:48.884Z,48.34
2017-05-03T02:34:17.183Z,36.44
2017-05-03T02:36:45.111Z,40.70
2017-05-03T02:39:13.067Z,37.72
2017-05-03T02:41:41.004Z,44.66
2017-05-03T02:44:08.941Z,51.60
2017-05-03T02:46:37.337Z,34.08
2017-05-03T02:49:05.640Z,37.32
2017-05-03T02:51:33.168Z,42.10
2017-05-03T02:54:01.504Z,56.38
2017-05-03T02:56:29.455Z,48.38
2017-05-03T02:58:57.384Z,41.50
2017-05-03T03:01:25.696Z,44.08
2017-05-03T03:03:53.260Z,47.74
2017-05-03T03:06:20.800Z,49.60
2017-05-03T03:08:48.731Z,36.28
2017-05-03T03:11:16.704Z,39.50
2017-05-03T03:13:44.630Z,43.20
2017-05-03T03:16:12.197Z,48.38
2017-05-03T03:18:40.545Z,39.80
2017-05-03T03:21:08.860Z,43.64
2017-05-03T03:23:36.795Z,41.90
2017-05-03T03:26:05.119Z,61.32
2017-05-03T03:28:33.052Z,40.40
2017-05-03T03:31:00.979Z,45.78
2017-05-03T03:33:28.936Z,44.10
2017-05-03T03:35:56.873Z,55.54
2017-05-03T03:38:24.808Z,47.10
2017-05-03T03:40:53.127Z,61.00
2017-05-03T03:43:21.060Z,42.64
2017-05-03T03:45:48.992Z,42.52
2017-05-03T03:48:16.948Z,50.38
2017-05-03T03:50:44.897Z,45.18
2017-05-03T03:53:12.431Z,51.96
2017-05-03T03:55:40.752Z,52.40
2017-05-03T03:58:08.692Z,61.54
2017-05-03T04:00:36.225Z,47.84
2017-05-03T04:03:04.186Z,58.70
2017-05-03T04:05:32.126Z,53.96
2017-05-03T04:08:00.048Z,65.38
2017-05-03T04:10:27.684Z,59.42
2017-05-03T04:12:55.645Z,73.04
2017-05-03T04:15:23.579Z,55.96
2017-05-03T04:17:51.518Z,61.48
2017-05-03T04:20:19.848Z,66.90
2017-05-03T04:22:47.791Z,64.70
2017-05-03T04:25:16.085Z,71.60
2017-05-03T04:27:44.048Z,77.10
2017-05-03T04:30:11.975Z,68.46
2017-05-03T04:32:40.280Z,72.08
2017-05-03T04:35:08.247Z,65.46
2017-05-03T04:37:36.548Z,59.92
2017-05-03T04:40:04.092Z,68.20
2017-05-03T04:42:32.043Z,76.82
2017-05-03T04:45:00.353Z,80.20
2017-05-03T04:47:27.887Z,67.96
2017-05-03T04:49:56.238Z,64.52
2017-05-03T04:52:24.169Z,72.38
2017-05-03T04:54:51.737Z,65.48
2017-05-03T04:57:19.695Z,73.82
2017-05-03T04:59:47.623Z,72.00
2017-05-03T05:02:15.584Z,78.96
2017-05-03T05:04:43.541Z,70.48
2017-05-03T05:07:11.476Z,70.64
2017-05-03T05:09:39.413Z,65.80
2017-05-03T05:12:07.740Z,77.04
2017-05-03T05:14:35.669Z,67.16
2017-05-03T05:17:03.213Z,83.14
2017-05-03T05:19:31.164Z,64.50
2017-05-03T05:21:59.101Z,60.74
2017-05-03T05:24:27.027Z,75.86
2017-05-03T05:26:54.597Z,77.12
2017-05-03T05:29:22.904Z,69.94
2017-05-03T05:31:50.836Z,70.12
2017-05-03T05:34:19.167Z,74.56
2017-05-03T05:36:47.100Z,79.72
2017-05-03T05:39:15.039Z,73.96
2017-05-03T05:41:43.009Z,73.58
2017-05-03T05:44:10.943Z,67.10
2017-05-03T05:46:38.876Z,60.68
2017-05-03T05:49:06.845Z,67.04
2017-05-03T05:51:35.149Z,62.06
2017-05-03T05:54:03.084Z,53.94
2017-05-03T05:56:31.044Z,63.42
2017-05-03T05:58:58.985Z,54.86
2017-05-03T06:01:26.931Z,55.96
2017-05-03T06:03:54.897Z,53.48
2017-05-03T06:06:22.832Z,54.38
2017-05-03T06:08:50.380Z,52.72
2017-05-03T06:11:18.345Z,57.52
2017-05-03T06:13:46.277Z,56.94
2017-05-03T06:16:14.214Z,52.76
2017-05-03T06:18:42.543Z,45.58
2017-05-03T06:21:10.480Z,46.86
2017-05-03T06:23:38.024Z,50.60
2017-05-03T06:26:05.990Z,54.18
2017-05-03T06:28:34.306Z,58.90
2017-05-03T06:31:02.243Z,46.82
2017-05-03T06:33:30.572Z,50.42
2017-05-03T06:35:58.507Z,47.22
2017-05-03T06:38:26.439Z,48.32
2017-05-03T06:40:54.776Z,65.68
2017-05-03T06:43:22.315Z,46.28
2017-05-03T06:45:50.255Z,48.06
2017-05-03T06:48:18.583Z,49.16
2017-05-03T06:50:46.486Z,56.86
2017-05-03T06:53:14.467Z,42.56
2017-05-03T06:55:42.036Z,41.72
2017-05-03T06:58:10.343Z,49.44
2017-05-03T07:00:37.888Z,52.04
2017-05-03T07:03:05.859Z,37.46
2017-05-03T07:05:33.796Z,35.84
2017-05-03T07:08:01.744Z,32.50
2017-05-03T07:10:29.704Z,32.92
2017-05-03T07:12:57.265Z,33.52
2017-05-03T07:15:25.200Z,34.08
2017-05-03T07:17:53.162Z,29.82
2017-05-03T07:20:21.473Z,30.24
2017-05-03T07:22:49.017Z,32.34
2017-05-03T07:25:16.588Z,29.94
2017-05-03T07:27:44.532Z,32.56
2017-05-03T07:30:12.836Z,26.78
2017-05-03T07:32:40.812Z,32.44
2017-05-03T07:35:08.740Z,30.52
2017-05-03T07:37:37.065Z,22.38
2017-05-03T07:40:05.040Z,20.28
2017-05-03T07:42:32.973Z,20.92
2017-05-03T07:45:01.308Z,14.58
2017-05-03T07:47:29.245Z,7.72
2017-05-03T07:49:57.177Z,6.48
2017-05-03T07:52:25.503Z,10.78
2017-05-03T07:54:53.031Z,9.64
2017-05-03T07:57:20.965Z,12.56
2017-05-03T07:59:49.728Z,25.94
2017-05-03T08:02:17.670Z,15.62
2017-05-03T08:04:45.600Z,9.28
2017-05-03T08:07:13.163Z,6.28
2017-05-03T08:09:41.091Z,9.78
2017-05-03T08:12:08.623Z,8.94
2017-05-03T08:14:36.301Z,9.92
2017-05-03T08:17:04.236Z,10.88
2017-05-03T08:19:32.558Z,14.08
2017-05-03T08:22:00.125Z,13.62
2017-05-03T08:24:28.890Z,10.68
2017-05-03T08:26:57.180Z,12.58
2017-05-03T08:29:25.132Z,15.16
2017-05-03T08:31:53.059Z,13.06
2017-05-03T08:34:20.603Z,11.68
2017-05-03T08:36:48.564Z,15.14
2017-05-03T08:39:16.096Z,13.20
2017-05-03T08:41:44.034Z,14.50
2017-05-03T08:44:11.983Z,11.48
2017-05-03T08:46:39.923Z,14.14
2017-05-03T08:49:07.859Z,11.08
2017-05-03T08:51:36.204Z,15.82
2017-05-03T08:54:04.128Z,12.24
2017-05-03T08:56:32.068Z,15.88
2017-05-03T08:59:00.039Z,15.80
2017-05-03T09:01:27.974Z,15.28
2017-05-03T09:03:55.904Z,14.92
2017-05-03T09:06:23.860Z,21.14
2017-05-03T09:08:51.400Z,11.48
2017-05-03T09:11:19.333Z,13.04
2017-05-03T09:13:47.300Z,15.70
2017-05-03T09:16:15.235Z,10.86
2017-05-03T09:18:43.536Z,9.84
2017-05-03T09:21:11.091Z,14.70
2017-05-03T09:23:39.019Z,8.18
2017-05-03T09:26:06.554Z,8.60
2017-05-03T09:28:34.544Z,8.10
2017-05-03T09:31:02.472Z,7.90
2017-05-03T09:33:30.401Z,5.88
2017-05-03T09:35:57.959Z,5.46
2017-05-03T09:38:25.954Z,5.26
2017-05-03T09:40:53.842Z,7.32
2017-05-03T09:43:21.807Z,6.14
2017-05-03T09:45:49.799Z,6.56
2017-05-03T09:48:17.730Z,6.64
2017-05-03T09:50:45.260Z,5.70
2017-05-03T09:53:13.217Z,5.58
2017-05-03T09:55:40.758Z,6.08
2017-05-03T09:58:08.692Z,5.80
2017-05-03T10:00:36.256Z,5.46
2017-05-03T10:03:04.219Z,10.98
2017-05-03T10:05:32.508Z,5.08
2017-05-03T10:08:00.462Z,8.84
2017-05-03T10:10:28.004Z,4.96
2017-05-03T10:12:55.932Z,4.78
2017-05-03T10:15:23.906Z,5.14
2017-05-03T10:17:51.835Z,5.56
2017-05-03T10:20:19.759Z,5.34
2017-05-03T10:22:47.730Z,5.52
2017-05-03T10:25:15.658Z,5.10
2017-05-03T10:27:43.191Z,5.00
2017-05-03T10:30:11.532Z,6.12
2017-05-03T10:32:39.484Z,5.58
2017-05-03T10:35:07.441Z,5.98
2017-05-03T10:37:35.367Z,4.98
2017-05-03T10:40:03.329Z,5.90
2017-05-03T10:42:31.254Z,5.48
2017-05-03T10:44:59.183Z,5.10
2017-05-03T10:47:26.751Z,5.68
2017-05-03T10:49:55.047Z,5.12
2017-05-03T10:52:22.992Z,4.82
2017-05-03T10:54:50.944Z,5.52
2017-05-03T10:57:18.900Z,6.16
2017-05-03T10:59:46.827Z,9.12
2017-05-03T11:02:14.783Z,4.86
2017-05-03T11:04:42.748Z,4.68
2017-05-03T11:07:11.054Z,4.88
2017-05-03T11:09:38.998Z,4.92
2017-05-03T11:12:07.299Z,6.04
2017-05-03T11:14:35.222Z,4.60
2017-05-03T11:17:02.784Z,4.50
2017-05-03T11:19:30.708Z,4.86
2017-05-03T11:21:58.243Z,4.18
2017-05-03T11:24:26.200Z,4.16
2017-05-03T11:26:54.500Z,4.80
2017-05-03T11:29:22.428Z,4.50
2017-05-03T11:31:50.379Z,5.22
2017-05-03T11:34:18.315Z,4.50
2017-05-03T11:36:46.239Z,4.80
2017-05-03T11:39:14.195Z,5.50
2017-05-03T11:41:42.126Z,5.42
2017-05-03T11:44:10.059Z,5.18
2017-05-03T11:46:38.028Z,4.84
2017-05-03T11:49:05.559Z,4.62
2017-05-03T11:51:33.475Z,4.58
2017-05-03T11:54:01.803Z,5.10
2017-05-03T11:56:29.732Z,5.18
2017-05-03T11:58:57.663Z,4.70
2017-05-03T12:01:25.619Z,4.60
2017-05-03T12:03:53.567Z,4.94
2017-05-03T12:06:21.499Z,4.90
2017-05-03T12:08:49.829Z,4.78
2017-05-03T12:11:17.367Z,12.32
2017-05-03T12:13:45.301Z,4.70
2017-05-03T12:16:13.628Z,9.86
2017-05-03T12:18:41.588Z,6.44
2017-05-03T12:21:09.515Z,4.56
2017-05-03T12:23:37.051Z,4.94
2017-05-03T12:26:05.015Z,9.26
2017-05-03T12:28:32.947Z,5.34
2017-05-03T12:31:00.885Z,4.68
2017-05-03T12:33:28.847Z,5.32
2017-05-03T12:35:56.421Z,5.28
2017-05-03T12:38:24.351Z,6.62
2017-05-03T12:40:52.284Z,6.00
2017-05-03T12:43:20.240Z,5.50
2017-05-03T12:45:48.543Z,6.30
2017-05-03T12:48:16.472Z,4.46
2017-05-03T12:50:44.430Z,4.94
2017-05-03T12:53:11.960Z,5.42
2017-05-03T12:55:39.896Z,5.50
2017-05-03T12:58:08.228Z,4.92
2017-05-03T13:00:36.159Z,4.62
2017-05-03T13:03:04.107Z,4.98
2017-05-03T13:05:31.664Z,4.52
2017-05-03T13:07:59.954Z,4.36
2017-05-03T13:10:27.490Z,5.00
2017-05-03T13:12:55.439Z,4.92
2017-05-03T13:15:23.368Z,5.24
2017-05-03T13:17:51.296Z,5.32
2017-05-03T13:20:19.250Z,5.14
2017-05-03T13:22:47.166Z,8.34
2017-05-03T13:25:15.091Z,7.28
2017-05-03T13:27:43.052Z,5.76
2017-05-03T13:30:10.975Z,6.78
2017-05-03T13:32:38.903Z,10.84
2017-05-03T13:35:06.855Z,5.88
2017-05-03T13:37:34.784Z,5.22
2017-05-03T13:40:02.707Z,9.38
2017-05-03T13:42:30.672Z,12.46
2017-05-03T13:44:58.595Z,6.30
2017-05-03T13:47:26.128Z,6.14
2017-05-03T13:49:54.079Z,9.40
2017-05-03T13:52:22.008Z,6.26
2017-05-03T13:54:49.931Z,7.88
2017-05-03T13:57:17.884Z,8.84
2017-05-03T13:59:45.823Z,5.20
2017-05-03T14:02:13.756Z,8.34
2017-05-03T14:04:42.079Z,6.86
2017-05-03T14:07:10.004Z,7.68
2017-05-03T14:09:38.309Z,11.62
2017-05-03T14:12:06.269Z,11.48
2017-05-03T14:14:34.200Z,10.50
2017-05-03T14:17:02.132Z,14.90
2017-05-03T14:19:30.101Z,7.20
2017-05-03T14:21:58.033Z,8.10
2017-05-03T14:24:26.332Z,14.80
2017-05-03T14:26:53.892Z,8.24
2017-05-03T14:29:21.819Z,7.02
2017-05-03T14:31:49.747Z,9.56
2017-05-03T14:34:17.302Z,6.24
2017-05-03T14:36:45.231Z,9.42
2017-05-03T14:39:13.160Z,6.30
2017-05-03T14:41:40.689Z,7.56
2017-05-03T14:44:08.650Z,8.68
2017-05-03T14:46:36.947Z,8.18
2017-05-03T14:49:04.896Z,7.40
2017-05-03T14:51:33.192Z,7.24
2017-05-03T14:54:00.718Z,9.42
2017-05-03T14:56:28.668Z,9.54
2017-05-03T14:58:56.620Z,6.88
2017-05-03T15:01:24.552Z,8.48
2017-05-03T15:03:52.503Z,7.28
2017-05-03T15:06:20.027Z,7.24
2017-05-03T15:08:47.952Z,6.02
2017-05-03T15:11:15.904Z,6.16
2017-05-03T15:13:44.200Z,7.74
2017-05-03T15:16:12.123Z,7.36
2017-05-03T15:18:40.084Z,6.36
2017-05-03T15:21:07.614Z,7.44
2017-05-03T15:23:35.540Z,6.40
2017-05-03T15:26:03.491Z,6.24
2017-05-03T15:28:31.419Z,6.68
2017-05-03T15:30:59.347Z,10.80
2017-05-03T15:33:27.390Z,9.38
2017-05-03T15:35:55.316Z,8.18
2017-05-03T15:38:22.848Z,6.16
2017-05-03T15:40:50.803Z,6.72
2017-05-03T15:43:18.726Z,8.36
2017-05-03T15:45:46.660Z,7.54
2017-05-03T15:48:14.607Z,8.32
2017-05-03T15:50:42.551Z,6.60
2017-05-03T15:53:10.495Z,6.50
2017-05-03T15:55:38.447Z,6.38
2017-05-03T15:58:06.747Z,10.24
2017-05-03T16:00:34.676Z,8.38
2017-05-03T16:03:02.240Z,7.84
2017-05-03T16:05:30.172Z,6.82
2017-05-03T16:07:58.095Z,16.64
2017-05-03T16:10:26.414Z,10.56
2017-05-03T16:12:54.340Z,12.18
2017-05-03T16:15:22.644Z,8.06
2017-05-03T16:17:50.596Z,12.18
2017-05-03T16:20:18.892Z,8.10
2017-05-03T16:22:47.808Z,7.66
2017-05-03T16:25:15.747Z,6.96
2017-05-03T16:27:43.666Z,9.64
2017-05-03T16:30:11.565Z,11.02
2017-05-03T16:32:39.187Z,9.22
2017-05-03T16:35:07.115Z,9.38
2017-05-03T16:37:35.047Z,12.64
2017-05-03T16:40:03.012Z,11.20
2017-05-03T16:42:30.940Z,7.22
2017-05-03T16:44:58.867Z,7.90
2017-05-03T16:47:26.829Z,7.18
2017-05-03T16:49:54.752Z,8.28
2017-05-03T16:52:22.680Z,7.96
2017-05-03T16:54:50.253Z,7.76
2017-05-03T16:57:18.552Z,7.08
2017-05-03T16:59:46.481Z,8.52
2017-05-03T17:02:14.463Z,7.16
2017-05-03T17:04:42.008Z,8.18
2017-05-03T17:07:09.947Z,10.80
2017-05-03T17:09:37.900Z,7.34
2017-05-03T17:12:05.848Z,10.60
2017-05-03T17:14:33.415Z,11.96
2017-05-03T17:17:01.739Z,8.56
2017-05-03T17:19:29.696Z,9.04
2017-05-03T17:21:57.636Z,9.92
2017-05-03T17:24:25.603Z,7.18
2017-05-03T17:26:53.936Z,8.64
2017-05-03T17:29:21.994Z,10.84
2017-05-03T17:31:50.153Z,9.30
2017-05-03T17:34:18.244Z,10.98
2017-05-03T17:36:46.192Z,10.18
2017-05-03T17:39:14.296Z,7.14
2017-05-03T17:41:41.913Z,7.56
2017-05-03T17:44:09.941Z,7.04
2017-05-03T17:46:38.040Z,7.14
2017-05-03T17:49:05.917Z,7.76
2017-05-03T17:51:34.097Z,6.58
2017-05-03T17:54:01.986Z,9.76
2017-05-03T17:56:30.311Z,9.48
2017-05-03T17:58:58.189Z,6.72
2017-05-03T18:01:26.169Z,9.56
2017-05-03T18:03:54.179Z,6.68
2017-05-03T18:06:22.711Z,6.92
2017-05-03T18:08:51.262Z,10.66
2017-05-03T18:11:20.493Z,9.18
2017-05-03T18:13:49.462Z,12.30
2017-05-03T18:16:18.010Z,14.64
2017-05-03T18:18:46.535Z,19.04
2017-05-03T18:21:15.446Z,16.00
2017-05-03T18:23:44.331Z,14.62
2017-05-03T18:26:14.203Z,16.48
2017-05-03T18:28:43.620Z,17.20
2017-05-03T18:31:12.581Z,19.12
2017-05-03T18:33:41.638Z,18.82
2017-05-03T18:36:10.575Z,17.72
2017-05-03T18:38:39.101Z,20.42
2017-05-03T18:41:08.182Z,18.12
2017-05-03T18:43:37.214Z,23.72
2017-05-03T18:46:06.175Z,18.78
2017-05-03T18:48:35.213Z,21.36
2017-05-03T18:51:04.160Z,17.90
2017-05-03T18:53:33.472Z,19.98
2017-05-03T18:56:02.507Z,22.26
2017-05-03T18:58:31.480Z,20.98
2017-05-03T19:01:00.049Z,19.60
2017-05-03T19:03:29.127Z,46.78
2017-05-03T19:05:58.082Z,25.02
2017-05-03T19:08:27.038Z,25.22
2017-05-03T19:10:56.321Z,30.26
2017-05-03T19:13:25.283Z,27.42
2017-05-03T19:15:54.224Z,20.02
2017-05-03T19:18:22.948Z,23.20
2017-05-03T19:20:51.935Z,26.12
2017-05-03T19:23:21.158Z,20.58
2017-05-03T19:25:50.653Z,27.38
2017-05-03T19:28:19.319Z,37.40
2017-05-03T19:30:48.284Z,27.14
2017-05-03T19:33:17.357Z,28.72
2017-05-03T19:35:46.452Z,38.24
2017-05-03T19:38:15.827Z,27.32
2017-05-03T19:40:44.883Z,25.46
2017-05-03T19:43:13.838Z,30.40
2017-05-03T19:45:42.820Z,32.36
2017-05-03T19:48:11.894Z,26.80
2017-05-03T19:50:40.862Z,31.26
2017-05-03T19:53:09.845Z,24.80
2017-05-03T19:55:39.101Z,34.18
2017-05-03T19:58:08.047Z,37.02
2017-05-03T20:00:37.112Z,28.04
2017-05-03T20:03:06.938Z,35.86
2017-05-03T20:05:35.906Z,27.34
2017-05-03T20:08:04.479Z,26.90
2017-05-03T20:10:33.578Z,30.02
2017-05-03T20:13:02.819Z,31.30
2017-05-03T20:15:32.076Z,27.56
2017-05-03T20:18:01.058Z,28.00
2017-05-03T20:20:30.804Z,49.72
2017-05-03T20:22:59.982Z,32.54
2017-05-03T20:25:28.574Z,34.32
2017-05-03T20:27:57.281Z,36.22
2017-05-03T20:30:26.754Z,23.64
2017-05-03T20:32:56.610Z,25.96
2017-05-03T20:35:25.561Z,35.20
2017-05-03T20:37:54.606Z,38.06
2017-05-03T20:40:23.932Z,36.76
2017-05-03T20:42:52.892Z,39.26
2017-05-03T20:45:21.920Z,40.68
2017-05-03T20:47:50.826Z,42.96
2017-05-03T20:50:19.767Z,35.34
2017-05-03T20:52:49.146Z,33.36
2017-05-03T20:55:18.053Z,32.18
2017-05-03T20:57:46.625Z,36.26
2017-05-03T21:00:15.726Z,34.88
2017-05-03T21:02:44.538Z,38.80
2017-05-03T21:05:13.401Z,36.72
2017-05-03T21:07:41.830Z,41.68
2017-05-03T21:10:10.286Z,37.64
2017-05-03T21:12:38.646Z,34.82
2017-05-03T21:15:06.674Z,40.28
2017-05-03T21:17:34.710Z,39.32
2017-05-03T21:20:02.775Z,31.58
2017-05-03T21:22:30.311Z,34.94
2017-05-03T21:24:58.288Z,38.24
2017-05-03T21:27:26.232Z,37.36
2017-05-03T21:29:54.172Z,40.12
2017-05-03T21:32:22.132Z,47.10
2017-05-03T21:34:50.065Z,41.28
2017-05-03T21:37:17.596Z,46.58
2017-05-03T21:39:45.563Z,35.54
2017-05-03T21:42:13.454Z,33.06
2017-05-03T21:44:41.433Z,48.82
2017-05-03T21:47:09.388Z,43.20
2017-05-03T21:49:37.332Z,42.52
2017-05-03T21:52:05.271Z,54.78
2017-05-03T21:54:33.229Z,50.72
2017-05-03T21:57:01.164Z,35.32
2017-05-03T21:59:29.108Z,51.20
2017-05-03T22:01:57.067Z,45.06
2017-05-03T22:04:25.013Z,34.62
2017-05-03T22:06:52.555Z,39.32
2017-05-03T22:09:20.883Z,33.54
2017-05-03T22:11:48.824Z,35.68
2017-05-03T22:14:16.768Z,45.18
2017-05-03T22:16:44.724Z,35.52
2017-05-03T22:19:12.661Z,34.88
2017-05-03T22:21:40.196Z,34.44
2017-05-03T22:24:08.152Z,39.88
2017-05-03T22:26:36.456Z,35.02
2017-05-03T22:29:03.993Z,34.14
2017-05-03T22:31:32.320Z,41.50
2017-05-03T22:34:00.251Z,40.32
2017-05-03T22:36:27.787Z,49.78
2017-05-03T22:38:56.112Z,38.96
2017-05-03T22:41:24.040Z,38.88
2017-05-03T22:43:51.571Z,41.52
2017-05-03T22:46:19.528Z,42.18
2017-05-03T22:48:47.458Z,39.92
2017-05-03T22:51:15.410Z,39.00
2017-05-03T22:53:43.735Z,45.54
2017-05-03T22:56:11.276Z,48.54
2017-05-03T22:58:39.207Z,51.78
2017-05-03T23:01:07.163Z,40.84
2017-05-03T23:03:35.105Z,44.62
2017-05-03T23:06:03.043Z,48.30
2017-05-03T23:08:30.595Z,50.42
2017-05-03T23:10:58.895Z,45.06
2017-05-03T23:13:26.833Z,43.22
2017-05-03T23:15:55.156Z,49.42
2017-05-03T23:18:23.090Z,52.62
2017-05-03T23:20:51.387Z,45.10
2017-05-03T23:23:19.340Z,46.10
2017-05-03T23:25:46.867Z,54.16
2017-05-03T23:28:14.808Z,52.20
2017-05-03T23:30:42.759Z,55.76
2017-05-03T23:33:10.303Z,68.92
2017-05-03T23:35:38.595Z,47.46
2017-05-03T23:38:06.559Z,52.46
2017-05-03T23:40:34.484Z,53.56
2017-05-03T23:43:02.412Z,53.04
2017-05-03T23:45:30.369Z,53.78
2017-05-03T23:47:58.305Z,53.00
2017-05-03T23:50:26.227Z,66.86
2017-05-03T23:52:54.176Z,58.30
2017-05-03T23:55:21.711Z,56.16
2017-05-03T23:57:49.643Z,58.32
